sensor_id;sensor_type;location;lat;lon;timestamp;pressure;altitude;pressure_sealevel;temperature;humidity
53041;BME280;39326;42.650;23.248;2024-01-11T00:00:06;93329.56;;;-6.53;73.28
53041;BME280;39326;42.650;23.248;2024-01-11T00:02:32;93333.97;;;-6.53;73.40
53041;BME280;39326;42.650;23.248;2024-01-11T00:04:57;93323.06;;;-6.55;73.64
53041;BME280;39326;42.650;23.248;2024-01-11T00:07:23;93326.94;;;-6.58;73.91
53041;BME280;39326;42.650;23.248;2024-01-11T00:09:48;93322.81;;;-6.59;74.00
53041;BME280;39326;42.650;23.248;2024-01-11T00:12:13;93317.88;;;-6.60;73.47
53041;BME280;39326;42.650;23.248;2024-01-11T00:14:39;93318.38;;;-6.69;74.36
53041;BME280;39326;42.650;23.248;2024-01-11T00:17:05;93314.50;;;-6.61;73.83
53041;BME280;39326;42.650;23.248;2024-01-11T00:19:30;93312.16;;;-6.52;73.16
53041;BME280;39326;42.650;23.248;2024-01-11T00:21:57;93315.53;;;-6.52;73.38
53041;BME280;39326;42.650;23.248;2024-01-11T00:24:22;93316.34;;;-6.56;72.83
53041;BME280;39326;42.650;23.248;2024-01-11T00:26:48;93314.50;;;-6.66;74.00
53041;BME280;39326;42.650;23.248;2024-01-11T00:29:13;93312.66;;;-6.71;74.14
53041;BME280;39326;42.650;23.248;2024-01-11T00:31:38;93309.56;;;-6.68;74.21
53041;BME280;39326;42.650;23.248;2024-01-11T00:34:04;93305.16;;;-6.67;73.93
53041;BME280;39326;42.650;23.248;2024-01-11T00:36:29;93304.13;;;-6.66;74.24
53041;BME280;39326;42.650;23.248;2024-01-11T00:38:55;93303.34;;;-6.66;74.30
53041;BME280;39326;42.650;23.248;2024-01-11T00:41:21;93305.69;;;-6.65;74.11
53041;BME280;39326;42.650;23.248;2024-01-11T00:43:46;93310.06;;;-6.71;74.89
53041;BME280;39326;42.650;23.248;2024-01-11T00:46:12;93304.09;;;-6.71;74.48
53041;BME280;39326;42.650;23.248;2024-01-11T00:48:37;93297.38;;;-6.72;74.86
53041;BME280;39326;42.650;23.248;2024-01-11T00:51:06;93301.78;;;-6.73;75.11
53041;BME280;39326;42.650;23.248;2024-01-11T00:53:31;93294.53;;;-6.76;74.57
53041;BME280;39326;42.650;23.248;2024-01-11T00:55:58;93291.66;;;-6.74;74.85
53041;BME280;39326;42.650;23.248;2024-01-11T00:58:23;93291.94;;;-6.76;74.88
53041;BME280;39326;42.650;23.248;2024-01-11T01:00:48;93295.56;;;-6.66;74.56
53041;BME280;39326;42.650;23.248;2024-01-11T01:03:15;93292.47;;;-6.63;73.83
53041;BME280;39326;42.650;23.248;2024-01-11T01:05:41;93285.47;;;-6.63;73.44
53041;BME280;39326;42.650;23.248;2024-01-11T01:08:07;93283.13;;;-6.70;73.16
53041;BME280;39326;42.650;23.248;2024-01-11T01:10:32;93279.75;;;-6.65;73.72
53041;BME280;39326;42.650;23.248;2024-01-11T01:12:57;93283.63;;;-6.68;73.46
53041;BME280;39326;42.650;23.248;2024-01-11T01:15:23;93284.13;;;-6.71;73.61
53041;BME280;39326;42.650;23.248;2024-01-11T01:17:48;93281.56;;;-6.76;73.81
53041;BME280;39326;42.650;23.248;2024-01-11T01:20:14;93284.63;;;-6.84;74.71
53041;BME280;39326;42.650;23.248;2024-01-11T01:22:40;93285.44;;;-6.78;74.70
53041;BME280;39326;42.650;23.248;2024-01-11T01:25:05;93285.44;;;-6.73;74.26
53041;BME280;39326;42.650;23.248;2024-01-11T01:27:31;93288.31;;;-6.75;74.79
53041;BME280;39326;42.650;23.248;2024-01-11T01:29:56;93291.94;;;-6.76;74.58
53041;BME280;39326;42.650;23.248;2024-01-11T01:32:22;93284.13;;;-6.71;74.25
53041;BME280;39326;42.650;23.248;2024-01-11T01:34:47;93285.44;;;-6.73;74.63
53041;BME280;39326;42.650;23.248;2024-01-11T01:37:12;93276.63;;;-6.72;74.15
53041;BME280;39326;42.650;23.248;2024-01-11T01:39:38;93271.44;;;-6.77;74.79
53041;BME280;39326;42.650;23.248;2024-01-11T01:42:04;93268.31;;;-6.94;75.33
53041;BME280;39326;42.650;23.248;2024-01-11T01:44:30;93265.97;;;-7.01;76.25
53041;BME280;39326;42.650;23.248;2024-01-11T01:46:56;93257.41;;;-7.02;76.46
53041;BME280;39326;42.650;23.248;2024-01-11T01:49:21;93254.56;;;-6.95;76.59
53041;BME280;39326;42.650;23.248;2024-01-11T01:51:48;93254.31;;;-6.88;76.15
53041;BME280;39326;42.650;23.248;2024-01-11T01:54:14;93253.56;;;-6.89;75.93
53041;BME280;39326;42.650;23.248;2024-01-11T01:56:40;93243.69;;;-6.87;75.43
53041;BME280;39326;42.650;23.248;2024-01-11T01:59:06;93237.47;;;-6.81;75.24
53041;BME280;39326;42.650;23.248;2024-01-11T02:01:32;93237.50;;;-6.76;74.75
53041;BME280;39326;42.650;23.248;2024-01-11T02:03:58;93231.75;;;-6.83;75.26
53041;BME280;39326;42.650;23.248;2024-01-11T02:06:26;93228.94;;;-6.81;75.42
53041;BME280;39326;42.650;23.248;2024-01-11T02:08:54;93231.25;;;-6.80;75.39
53041;BME280;39326;42.650;23.248;2024-01-11T02:11:21;93227.13;;;-6.76;75.31
53041;BME280;39326;42.650;23.248;2024-01-11T02:13:50;93229.94;;;-6.77;74.69
53041;BME280;39326;42.650;23.248;2024-01-11T02:16:15;93231.25;;;-6.75;74.59
53041;BME280;39326;42.650;23.248;2024-01-11T02:18:41;93231.78;;;-6.73;74.86
53041;BME280;39326;42.650;23.248;2024-01-11T02:21:09;93232.81;;;-6.69;73.66
53041;BME280;39326;42.650;23.248;2024-01-11T02:23:42;93230.22;;;-6.69;73.63
53041;BME280;39326;42.650;23.248;2024-01-11T02:26:11;93227.13;;;-6.76;74.71
53041;BME280;39326;42.650;23.248;2024-01-11T02:28:36;93236.19;;;-6.78;74.75
53041;BME280;39326;42.650;23.248;2024-01-11T02:31:02;93241.63;;;-6.85;75.09
53041;BME280;39326;42.650;23.248;2024-01-11T02:33:27;93232.31;;;-6.76;75.10
53041;BME280;39326;42.650;23.248;2024-01-11T02:35:53;93223.75;;;-6.76;74.87
53041;BME280;39326;42.650;23.248;2024-01-11T02:38:19;93226.34;;;-6.81;75.30
53041;BME280;39326;42.650;23.248;2024-01-11T02:40:45;93221.66;;;-6.79;75.06
53041;BME280;39326;42.650;23.248;2024-01-11T02:43:11;93222.94;;;-6.77;74.61
53041;BME280;39326;42.650;23.248;2024-01-11T02:45:37;93226.81;;;-6.89;75.37
53041;BME280;39326;42.650;23.248;2024-01-11T02:48:03;93221.66;;;-6.94;75.43
53041;BME280;39326;42.650;23.248;2024-01-11T02:50:28;93218.53;;;-6.91;75.82
53041;BME280;39326;42.650;23.248;2024-01-11T02:52:53;93216.72;;;-6.96;76.02
53041;BME280;39326;42.650;23.248;2024-01-11T02:55:19;93215.94;;;-6.97;75.83
53041;BME280;39326;42.650;23.248;2024-01-11T02:57:44;93214.66;;;-6.94;75.69
53041;BME280;39326;42.650;23.248;2024-01-11T03:00:10;93213.09;;;-6.90;75.89
53041;BME280;39326;42.650;23.248;2024-01-11T03:02:37;93214.66;;;-6.99;75.89
53041;BME280;39326;42.650;23.248;2024-01-11T03:05:03;93211.25;;;-7.05;75.96
53041;BME280;39326;42.650;23.248;2024-01-11T03:07:29;93213.59;;;-7.08;76.03
53041;BME280;39326;42.650;23.248;2024-01-11T03:09:55;93209.97;;;-7.02;75.12
53041;BME280;39326;42.650;23.248;2024-01-11T03:12:21;93202.97;;;-6.97;74.89
53041;BME280;39326;42.650;23.248;2024-01-11T03:14:47;93211.03;;;-6.93;74.80
53041;BME280;39326;42.650;23.248;2024-01-11T03:17:12;93218.81;;;-6.93;74.71
53041;BME280;39326;42.650;23.248;2024-01-11T03:19:41;93207.66;;;-6.93;74.91
53041;BME280;39326;42.650;23.248;2024-01-11T03:22:06;93216.72;;;-6.96;75.37
53041;BME280;39326;42.650;23.248;2024-01-11T03:24:33;93200.91;;;-7.00;75.81
53041;BME280;39326;42.650;23.248;2024-01-11T03:26:58;93206.09;;;-7.05;75.62
53041;BME280;39326;42.650;23.248;2024-01-11T03:29:24;93206.09;;;-7.05;75.75
53041;BME280;39326;42.650;23.248;2024-01-11T03:31:49;93206.59;;;-7.03;75.71
53041;BME280;39326;42.650;23.248;2024-01-11T03:34:15;93205.31;;;-7.05;75.93
53041;BME280;39326;42.650;23.248;2024-01-11T03:36:40;93203.75;;;-7.11;76.25
53041;BME280;39326;42.650;23.248;2024-01-11T03:39:05;93201.66;;;-7.14;76.30
53041;BME280;39326;42.650;23.248;2024-01-11T03:41:31;93198.81;;;-7.13;76.32
53041;BME280;39326;42.650;23.248;2024-01-11T03:43:57;93202.44;;;-7.09;76.06
53041;BME280;39326;42.650;23.248;2024-01-11T03:46:22;93199.31;;;-7.16;76.73
53041;BME280;39326;42.650;23.248;2024-01-11T03:48:48;93198.03;;;-7.03;76.07
53041;BME280;39326;42.650;23.248;2024-01-11T03:51:13;93195.72;;;-7.00;75.41
53041;BME280;39326;42.650;23.248;2024-01-11T03:53:39;93196.50;;;-7.04;75.63
53041;BME280;39326;42.650;23.248;2024-01-11T03:56:04;93192.88;;;-7.13;75.79
53041;BME280;39326;42.650;23.248;2024-01-11T03:58:30;93196.47;;;-7.19;76.65
53041;BME280;39326;42.650;23.248;2024-01-11T04:00:55;93196.75;;;-7.06;76.20
53041;BME280;39326;42.650;23.248;2024-01-11T04:03:21;93189.25;;;-7.12;75.98
53041;BME280;39326;42.650;23.248;2024-01-11T04:05:46;93183.53;;;-7.09;75.46
53041;BME280;39326;42.650;23.248;2024-01-11T04:08:12;93191.81;;;-7.17;76.08
53041;BME280;39326;42.650;23.248;2024-01-11T04:10:37;93188.72;;;-7.19;76.22
53041;BME280;39326;42.650;23.248;2024-01-11T04:13:03;93178.84;;;-7.23;76.63
53041;BME280;39326;42.650;23.248;2024-01-11T04:15:28;93172.63;;;-7.16;76.19
53041;BME280;39326;42.650;23.248;2024-01-11T04:17:54;93171.34;;;-7.19;76.50
53041;BME280;39326;42.650;23.248;2024-01-11T04:20:19;93173.13;;;-7.30;76.78
53041;BME280;39326;42.650;23.248;2024-01-11T04:22:44;93167.94;;;-7.35;77.24
53041;BME280;39326;42.650;23.248;2024-01-11T04:25:10;93171.31;;;-7.39;77.00
53041;BME280;39326;42.650;23.248;2024-01-11T04:27:36;93175.22;;;-7.32;76.95
53041;BME280;39326;42.650;23.248;2024-01-11T04:30:01;93170.22;;;-7.54;77.74
53041;BME280;39326;42.650;23.248;2024-01-11T04:32:27;93174.13;;;-7.56;77.58
53041;BME280;39326;42.650;23.248;2024-01-11T04:34:52;93175.09;;;-7.78;78.89
53041;BME280;39326;42.650;23.248;2024-01-11T04:37:18;93182.41;;;-7.64;78.61
53041;BME280;39326;42.650;23.248;2024-01-11T04:39:44;93169.97;;;-7.57;78.35
53041;BME280;39326;42.650;23.248;2024-01-11T04:42:09;93176.22;;;-7.43;77.80
53041;BME280;39326;42.650;23.248;2024-01-11T04:44:35;93176.50;;;-7.44;77.91
53041;BME280;39326;42.650;23.248;2024-01-11T04:47:00;93180.13;;;-7.30;77.26
53041;BME280;39326;42.650;23.248;2024-01-11T04:49:26;93180.41;;;-7.22;76.84
53041;BME280;39326;42.650;23.248;2024-01-11T04:51:51;93189.75;;;-7.15;76.11
53041;BME280;39326;42.650;23.248;2024-01-11T04:54:16;93188.47;;;-7.13;75.80
53041;BME280;39326;42.650;23.248;2024-01-11T04:56:42;93187.16;;;-7.26;76.16
53041;BME280;39326;42.650;23.248;2024-01-11T04:59:07;93186.38;;;-7.26;76.25
53041;BME280;39326;42.650;23.248;2024-01-11T05:01:32;93183.50;;;-7.35;76.26
53041;BME280;39326;42.650;23.248;2024-01-11T05:03:58;93182.72;;;-7.30;76.42
53041;BME280;39326;42.650;23.248;2024-01-11T05:06:23;93175.47;;;-7.23;75.71
53041;BME280;39326;42.650;23.248;2024-01-11T05:08:51;93192.28;;;-7.36;76.39
53041;BME280;39326;42.650;23.248;2024-01-11T05:11:21;93174.19;;;-7.31;75.80
53041;BME280;39326;42.650;23.248;2024-01-11T05:13:47;93180.13;;;-7.30;75.75
53041;BME280;39326;42.650;23.248;2024-01-11T05:16:27;93187.09;;;-7.41;76.64
53041;BME280;39326;42.650;23.248;2024-01-11T05:18:54;93178.03;;;-7.43;77.04
53041;BME280;39326;42.650;23.248;2024-01-11T05:21:20;93170.53;;;-7.40;76.61
53041;BME280;39326;42.650;23.248;2024-01-11T05:23:45;93171.31;;;-7.34;76.56
53041;BME280;39326;42.650;23.248;2024-01-11T05:26:12;93161.72;;;-7.34;76.03
53041;BME280;39326;42.650;23.248;2024-01-11T05:28:38;93155.53;;;-7.33;75.85
53041;BME280;39326;42.650;23.248;2024-01-11T05:31:14;93160.97;;;-7.39;76.21
53041;BME280;39326;42.650;23.248;2024-01-11T05:33:40;93157.59;;;-7.35;76.34
53041;BME280;39326;42.650;23.248;2024-01-11T05:36:06;93144.09;;;-7.42;75.75
53041;BME280;39326;42.650;23.248;2024-01-11T05:38:32;93159.91;;;-7.33;75.70
53041;BME280;39326;42.650;23.248;2024-01-11T05:40:57;93148.00;;;-7.29;75.52
53041;BME280;39326;42.650;23.248;2024-01-11T05:43:23;93155.78;;;-7.29;75.40
53041;BME280;39326;42.650;23.248;2024-01-11T05:45:49;93155.00;;;-7.35;75.60
53041;BME280;39326;42.650;23.248;2024-01-11T05:48:15;93144.91;;;-7.31;75.67
53041;BME280;39326;42.650;23.248;2024-01-11T05:50:41;93151.38;;;-7.39;75.70
53041;BME280;39326;42.650;23.248;2024-01-11T05:53:06;93144.13;;;-7.32;75.39
53041;BME280;39326;42.650;23.248;2024-01-11T05:55:32;93138.41;;;-7.34;75.68
53041;BME280;39326;42.650;23.248;2024-01-11T05:57:57;93138.19;;;-7.32;75.91
53041;BME280;39326;42.650;23.248;2024-01-11T06:00:23;93139.97;;;-7.43;76.07
53041;BME280;39326;42.650;23.248;2024-01-11T06:02:48;93135.56;;;-7.47;76.45
53041;BME280;39326;42.650;23.248;2024-01-11T06:05:13;93126.75;;;-7.46;76.37
53041;BME280;39326;42.650;23.248;2024-01-11T06:07:40;93126.50;;;-7.45;76.36
53041;BME280;39326;42.650;23.248;2024-01-11T06:10:07;93129.59;;;-7.53;76.79
53041;BME280;39326;42.650;23.248;2024-01-11T06:12:34;93129.59;;;-7.43;76.56
53041;BME280;39326;42.650;23.248;2024-01-11T06:14:59;93125.97;;;-7.47;76.79
53041;BME280;39326;42.650;23.248;2024-01-11T06:17:24;93126.25;;;-7.38;76.29
53041;BME280;39326;42.650;23.248;2024-01-11T06:19:50;93124.69;;;-7.50;76.59
53041;BME280;39326;42.650;23.248;2024-01-11T06:22:15;93133.97;;;-7.59;77.26
53041;BME280;39326;42.650;23.248;2024-01-11T06:24:41;93129.09;;;-7.45;76.53
53041;BME280;39326;42.650;23.248;2024-01-11T06:27:06;93128.31;;;-7.45;76.67
53041;BME280;39326;42.650;23.248;2024-01-11T06:29:32;93122.34;;;-7.46;76.62
53041;BME280;39326;42.650;23.248;2024-01-11T06:31:57;93124.41;;;-7.48;76.94
53041;BME280;39326;42.650;23.248;2024-01-11T06:34:23;93126.25;;;-7.43;77.33
53041;BME280;39326;42.650;23.248;2024-01-11T06:36:48;93117.44;;;-7.37;76.86
53041;BME280;39326;42.650;23.248;2024-01-11T06:39:13;93118.47;;;-7.33;76.84
53041;BME280;39326;42.650;23.248;2024-01-11T06:41:39;93119.28;;;-7.33;76.90
53041;BME280;39326;42.650;23.248;2024-01-11T06:44:04;93112.78;;;-7.30;76.56
53041;BME280;39326;42.650;23.248;2024-01-11T06:46:30;93104.75;;;-7.24;76.59
53041;BME280;39326;42.650;23.248;2024-01-11T06:48:55;93111.22;;;-7.21;76.52
53041;BME280;39326;42.650;23.248;2024-01-11T06:51:22;93101.66;;;-7.15;76.22
53041;BME280;39326;42.650;23.248;2024-01-11T06:53:48;93109.69;;;-7.12;76.37
53041;BME280;39326;42.650;23.248;2024-01-11T06:56:19;93107.88;;;-7.11;76.76
53041;BME280;39326;42.650;23.248;2024-01-11T06:58:45;93108.38;;;-7.09;76.03
53041;BME280;39326;42.650;23.248;2024-01-11T07:01:11;93109.94;;;-7.03;77.20
53041;BME280;39326;42.650;23.248;2024-01-11T07:03:37;93112.53;;;-6.98;76.85
53041;BME280;39326;42.650;23.248;2024-01-11T07:06:03;93116.19;;;-6.89;77.08
53041;BME280;39326;42.650;23.248;2024-01-11T07:08:29;93117.72;;;-6.93;76.58
53041;BME280;39326;42.650;23.248;2024-01-11T07:10:55;93120.03;;;-6.91;76.15
53041;BME280;39326;42.650;23.248;2024-01-11T07:13:20;93120.28;;;-6.83;76.30
53041;BME280;39326;42.650;23.248;2024-01-11T07:15:46;93114.09;;;-6.82;76.49
53041;BME280;39326;42.650;23.248;2024-01-11T07:18:12;93111.75;;;-6.83;76.79
53041;BME280;39326;42.650;23.248;2024-01-11T07:20:37;93115.59;;;-6.65;77.34
53041;BME280;39326;42.650;23.248;2024-01-11T07:23:03;93110.91;;;-6.48;76.44
53041;BME280;39326;42.650;23.248;2024-01-11T07:25:29;93111.91;;;-6.39;75.82
53041;BME280;39326;42.650;23.248;2024-01-11T07:27:55;93111.38;;;-6.26;75.73
53041;BME280;39326;42.650;23.248;2024-01-11T07:30:21;93103.56;;;-6.21;76.10
53041;BME280;39326;42.650;23.248;2024-01-11T07:32:46;93104.31;;;-6.05;75.76
53041;BME280;39326;42.650;23.248;2024-01-11T07:35:12;93101.91;;;-5.96;74.53
53041;BME280;39326;42.650;23.248;2024-01-11T07:37:38;93102.91;;;-5.82;75.42
53041;BME280;39326;42.650;23.248;2024-01-11T07:40:07;93102.84;;;-5.72;74.85
53041;BME280;39326;42.650;23.248;2024-01-11T07:42:39;93109.56;;;-5.66;74.93
53041;BME280;39326;42.650;23.248;2024-01-11T07:45:06;93102.22;;;-5.53;74.06
53041;BME280;39326;42.650;23.248;2024-01-11T07:47:32;93103.56;;;-5.61;74.50
53041;BME280;39326;42.650;23.248;2024-01-11T07:49:57;93102.22;;;-5.53;73.93
53041;BME280;39326;42.650;23.248;2024-01-11T07:52:23;93094.47;;;-5.58;74.22
53041;BME280;39326;42.650;23.248;2024-01-11T07:54:48;93105.56;;;-5.43;74.17
53041;BME280;39326;42.650;23.248;2024-01-11T07:57:13;93099.34;;;-5.52;74.89
53041;BME280;39326;42.650;23.248;2024-01-11T07:59:39;93106.22;;;-5.76;75.30
53041;BME280;39326;42.650;23.248;2024-01-11T08:02:05;93094.69;;;-5.99;75.10
53041;BME280;39326;42.650;23.248;2024-01-11T08:04:31;93089.56;;;-5.65;75.20
53041;BME280;39326;42.650;23.248;2024-01-11T08:06:57;93082.94;;;-5.42;75.14
53041;BME280;39326;42.650;23.248;2024-01-11T08:09:25;93088.47;;;-5.20;74.16
53041;BME280;39326;42.650;23.248;2024-01-11T08:11:51;93092.66;;;-5.19;73.50
53041;BME280;39326;42.650;23.248;2024-01-11T08:14:17;93090.78;;;-5.13;73.85
53041;BME280;39326;42.650;23.248;2024-01-11T08:16:43;93087.50;;;-5.24;74.30
53041;BME280;39326;42.650;23.248;2024-01-11T08:19:08;93081.88;;;-5.07;74.21
53041;BME280;39326;42.650;23.248;2024-01-11T08:21:35;93086.63;;;-5.14;73.69
53041;BME280;39326;42.650;23.248;2024-01-11T08:24:01;93082.06;;;-4.93;73.69
53041;BME280;39326;42.650;23.248;2024-01-11T08:26:28;93080.59;;;-4.75;73.14
53041;BME280;39326;42.650;23.248;2024-01-11T08:28:55;93086.25;;;-4.44;74.03
53041;BME280;39326;42.650;23.248;2024-01-11T08:31:20;93079.88;;;-4.28;73.90
53041;BME280;39326;42.650;23.248;2024-01-11T08:33:46;93084.34;;;-4.34;72.16
53041;BME280;39326;42.650;23.248;2024-01-11T08:36:12;93081.38;;;-4.75;72.44
53041;BME280;39326;42.650;23.248;2024-01-11T08:38:37;93087.63;;;-4.23;73.16
53041;BME280;39326;42.650;23.248;2024-01-11T08:41:04;93092.78;;;-4.18;72.67
53041;BME280;39326;42.650;23.248;2024-01-11T08:43:29;93084.03;;;-3.84;72.92
53041;BME280;39326;42.650;23.248;2024-01-11T08:45:54;93087.25;;;-3.68;71.92
53041;BME280;39326;42.650;23.248;2024-01-11T08:48:20;93079.84;;;-3.61;71.15
53041;BME280;39326;42.650;23.248;2024-01-11T08:50:46;93077.88;;;-3.51;70.98
53041;BME280;39326;42.650;23.248;2024-01-11T08:53:12;93085.41;;;-3.49;70.28
53041;BME280;39326;42.650;23.248;2024-01-11T08:55:37;93072.06;;;-3.10;70.16
53041;BME280;39326;42.650;23.248;2024-01-11T08:58:03;93077.53;;;-2.93;68.90
53041;BME280;39326;42.650;23.248;2024-01-11T09:00:29;93067.50;;;-2.85;68.81
53041;BME280;39326;42.650;23.248;2024-01-11T09:02:55;93066.63;;;-2.81;68.75
53041;BME280;39326;42.650;23.248;2024-01-11T09:05:20;93058.28;;;-2.50;69.24
53041;BME280;39326;42.650;23.248;2024-01-11T09:07:46;93058.41;;;-2.14;68.57
53041;BME280;39326;42.650;23.248;2024-01-11T09:10:12;93055.88;;;-2.05;67.54
53041;BME280;39326;42.650;23.248;2024-01-11T09:12:38;93054.22;;;-1.88;67.49
53041;BME280;39326;42.650;23.248;2024-01-11T09:15:04;93057.75;;;-1.92;66.48
53041;BME280;39326;42.650;23.248;2024-01-11T09:17:29;93036.53;;;-1.91;65.98
53041;BME280;39326;42.650;23.248;2024-01-11T09:19:55;93048.34;;;-2.21;64.71
53041;BME280;39326;42.650;23.248;2024-01-11T09:22:20;93048.84;;;-2.05;64.98
53041;BME280;39326;42.650;23.248;2024-01-11T09:24:45;93043.50;;;-1.86;65.02
53041;BME280;39326;42.650;23.248;2024-01-11T09:27:11;93046.53;;;-1.57;64.91
53041;BME280;39326;42.650;23.248;2024-01-11T09:29:42;93039.09;;;-1.63;63.78
53041;BME280;39326;42.650;23.248;2024-01-11T09:32:07;93034.97;;;-1.42;63.94
53041;BME280;39326;42.650;23.248;2024-01-11T09:34:33;93037.31;;;-1.40;63.42
53041;BME280;39326;42.650;23.248;2024-01-11T09:36:58;93025.09;;;-1.45;63.25
53041;BME280;39326;42.650;23.248;2024-01-11T09:39:24;93023.00;;;-0.98;64.54
53041;BME280;39326;42.650;23.248;2024-01-11T09:42:17;93011.19;;;-1.32;60.96
53041;BME280;39326;42.650;23.248;2024-01-11T09:44:43;93015.84;;;-1.06;62.92
53041;BME280;39326;42.650;23.248;2024-01-11T09:47:10;93012.00;;;-0.78;61.95
53041;BME280;39326;42.650;23.248;2024-01-11T09:49:37;93002.88;;;-0.49;62.04
53041;BME280;39326;42.650;23.248;2024-01-11T09:52:05;92990.25;;;-0.07;62.30
53041;BME280;39326;42.650;23.248;2024-01-11T09:54:31;92992.00;;;0.32;60.66
53041;BME280;39326;42.650;23.248;2024-01-11T09:56:58;92989.38;;;0.23;59.22
53041;BME280;39326;42.650;23.248;2024-01-11T09:59:25;92985.47;;;-0.05;58.75
53041;BME280;39326;42.650;23.248;2024-01-11T10:01:51;92989.66;;;0.04;58.88
53041;BME280;39326;42.650;23.248;2024-01-11T10:04:18;92977.19;;;0.27;58.70
53041;BME280;39326;42.650;23.248;2024-01-11T10:06:44;92970.25;;;0.49;58.56
53041;BME280;39326;42.650;23.248;2024-01-11T10:09:10;92969.94;;;0.50;58.07
53041;BME280;39326;42.650;23.248;2024-01-11T10:11:36;92969.94;;;0.50;58.28
53041;BME280;39326;42.650;23.248;2024-01-11T10:14:01;92962.72;;;0.47;57.79
53041;BME280;39326;42.650;23.248;2024-01-11T10:16:28;92957.44;;;0.64;57.69
53041;BME280;39326;42.650;23.248;2024-01-11T10:18:57;92956.03;;;0.93;57.50
53041;BME280;39326;42.650;23.248;2024-01-11T10:21:26;92946.25;;;1.11;56.52
53041;BME280;39326;42.650;23.248;2024-01-11T10:23:52;92946.78;;;1.34;55.93
53041;BME280;39326;42.650;23.248;2024-01-11T10:26:18;92946.25;;;1.11;55.21
53041;BME280;39326;42.650;23.248;2024-01-11T10:28:47;92942.22;;;1.22;55.55
53041;BME280;39326;42.650;23.248;2024-01-11T10:31:13;92938.28;;;1.37;55.21
53041;BME280;39326;42.650;23.248;2024-01-11T10:33:42;92934.13;;;1.36;55.16
53041;BME280;39326;42.650;23.248;2024-01-11T10:36:07;92931.13;;;1.46;54.03
53041;BME280;39326;42.650;23.248;2024-01-11T10:38:39;92928.16;;;1.56;53.87
53041;BME280;39326;42.650;23.248;2024-01-11T10:41:05;92924.31;;;1.15;54.17
53041;BME280;39326;42.650;23.248;2024-01-11T10:43:32;92919.84;;;1.45;54.60
53041;BME280;39326;42.650;23.248;2024-01-11T10:46:00;92909.44;;;1.28;53.60
53041;BME280;39326;42.650;23.248;2024-01-11T10:48:30;92916.97;;;1.68;54.39
53041;BME280;39326;42.650;23.248;2024-01-11T10:51:00;92915.28;;;1.93;53.39
53041;BME280;39326;42.650;23.248;2024-01-11T10:53:44;92918.25;;;1.62;52.84
53041;BME280;39326;42.650;23.248;2024-01-11T10:56:13;92905.91;;;1.83;53.03
53041;BME280;39326;42.650;23.248;2024-01-11T10:58:41;92902.22;;;2.05;53.15
53041;BME280;39326;42.650;23.248;2024-01-11T11:01:11;92902.56;;;1.95;52.47
53041;BME280;39326;42.650;23.248;2024-01-11T11:03:37;92890.91;;;2.05;52.13
53041;BME280;39326;42.650;23.248;2024-01-11T11:06:04;92886.03;;;1.74;52.60
53041;BME280;39326;42.650;23.248;2024-01-11T11:08:31;92881.28;;;1.88;52.43
53041;BME280;39326;42.650;23.248;2024-01-11T11:10:59;92878.19;;;2.27;52.71
53041;BME280;39326;42.650;23.248;2024-01-11T11:13:26;92872.19;;;1.85;52.74
53041;BME280;39326;42.650;23.248;2024-01-11T11:15:52;92859.59;;;2.12;51.76
53041;BME280;39326;42.650;23.248;2024-01-11T11:18:19;92863.06;;;2.24;51.89
53041;BME280;39326;42.650;23.248;2024-01-11T11:20:45;92860.94;;;2.39;52.02
53041;BME280;39326;42.650;23.248;2024-01-11T11:23:12;92850.78;;;2.49;52.43
53041;BME280;39326;42.650;23.248;2024-01-11T11:25:41;92851.88;;;2.94;50.74
53041;BME280;39326;42.650;23.248;2024-01-11T11:28:08;92838.50;;;2.99;51.37
53041;BME280;39326;42.650;23.248;2024-01-11T11:30:37;92827.63;;;3.49;50.76
53041;BME280;39326;42.650;23.248;2024-01-11T11:33:20;92828.25;;;2.97;49.36
53041;BME280;39326;42.650;23.248;2024-01-11T11:35:47;92812.94;;;3.36;51.11
53041;BME280;39326;42.650;23.248;2024-01-11T11:38:20;92818.19;;;3.36;49.27
53041;BME280;39326;42.650;23.248;2024-01-11T11:40:47;92816.44;;;3.28;50.18
53041;BME280;39326;42.650;23.248;2024-01-11T11:43:15;92808.28;;;3.70;50.56
53041;BME280;39326;42.650;23.248;2024-01-11T11:45:41;92802.78;;;3.75;49.99
53041;BME280;39326;42.650;23.248;2024-01-11T11:51:12;92807.25;;;4.27;47.46
53041;BME280;39326;42.650;23.248;2024-01-11T11:53:40;92807.63;;;4.69;48.55
53041;BME280;39326;42.650;23.248;2024-01-11T11:56:07;92803.94;;;4.74;48.07
53041;BME280;39326;42.650;23.248;2024-01-11T11:58:34;92802.84;;;4.90;47.96
53041;BME280;39326;42.650;23.248;2024-01-11T12:01:00;92801.22;;;4.70;47.61
53041;BME280;39326;42.650;23.248;2024-01-11T12:03:29;92796.59;;;4.67;47.52
53041;BME280;39326;42.650;23.248;2024-01-11T12:05:58;92790.22;;;4.84;46.78
53041;BME280;39326;42.650;23.248;2024-01-11T12:08:24;92790.41;;;4.91;46.64
53041;BME280;39326;42.650;23.248;2024-01-11T12:10:51;92787.25;;;5.01;46.75
53041;BME280;39326;42.650;23.248;2024-01-11T12:13:16;92782.88;;;4.46;47.01
53041;BME280;39326;42.650;23.248;2024-01-11T12:15:42;92777.38;;;3.82;47.74
53041;BME280;39326;42.650;23.248;2024-01-11T12:18:08;92775.75;;;3.53;48.61
53041;BME280;39326;42.650;23.248;2024-01-11T12:20:33;92771.03;;;3.59;49.13
53041;BME280;39326;42.650;23.248;2024-01-11T12:22:59;92761.06;;;3.93;48.70
53041;BME280;39326;42.650;23.248;2024-01-11T12:25:25;92768.41;;;3.99;49.41
53041;BME280;39326;42.650;23.248;2024-01-11T12:27:50;92763.03;;;3.96;49.06
53041;BME280;39326;42.650;23.248;2024-01-11T12:30:22;92761.84;;;3.41;49.66
53041;BME280;39326;42.650;23.248;2024-01-11T12:32:49;92759.31;;;3.56;49.93
53041;BME280;39326;42.650;23.248;2024-01-11T12:35:15;92751.09;;;3.33;49.98
53041;BME280;39326;42.650;23.248;2024-01-11T12:37:40;92750.00;;;3.10;50.66
53041;BME280;39326;42.650;23.248;2024-01-11T12:40:06;92752.09;;;2.68;51.51
53041;BME280;39326;42.650;23.248;2024-01-11T12:42:35;92742.22;;;2.77;51.54
53041;BME280;39326;42.650;23.248;2024-01-11T12:45:00;92738.06;;;2.76;51.93
53041;BME280;39326;42.650;23.248;2024-01-11T12:47:26;92745.06;;;2.60;52.71
53041;BME280;39326;42.650;23.248;2024-01-11T12:49:51;92729.19;;;2.11;53.52